Time;durP1;ratioP1;P1;durP2;ratioP2;P2;SDS_P1;SDS_P2;PMS_P1;PMS_P2;Temp;Humidity;BMP_temperature;BMP_pressure;BME280_temperature;BME280_humidity;BME280_pressure;Samples;Min_cycle;Max_cycle;Signal;HPM_P1;HPM_P2
2022/06/23 00:02:24;;;;;;;25.53;14.20;;;19.60;73.40;;;;;;5043878;28;46420;-63
2022/06/23 00:04:53;;;;;;;21.90;12.40;;;19.60;73.30;;;;;;5045561;28;47400;-64
2022/06/23 00:07:24;;;;;;;30.70;12.90;;;19.50;73.30;;;;;;5041318;28;46352;-65
2022/06/23 00:10:03;;;;;;;40.13;13.40;;;19.50;73.80;;;;;;5044629;28;46410;-65
2022/06/23 00:12:33;;;;;;;28.87;11.57;;;19.40;74.30;;;;;;5049460;28;46409;-64
2022/06/23 00:14:58;;;;;;;32.10;11.97;;;19.30;74.50;;;;;;5047597;28;46069;-65
2022/06/23 00:17:36;;;;;;;31.10;12.77;;;19.20;74.60;;;;;;5043137;28;46326;-65
2022/06/23 00:20:18;;;;;;;45.10;11.70;;;19.10;75.00;;;;;;5042863;28;46944;-65
2022/06/23 00:22:49;;;;;;;24.30;13.03;;;19.00;75.30;;;;;;5045985;28;46418;-65
2022/06/23 00:25:31;;;;;;;38.67;12.60;;;18.90;75.60;;;;;;5044801;28;46044;-65
2022/06/23 00:27:58;;;;;;;38.00;13.70;;;18.90;75.70;;;;;;5042041;28;46441;-65
2022/06/23 00:30:39;;;;;;;34.90;14.13;;;18.80;75.50;;;;;;5049413;28;46425;-64
2022/06/23 00:33:17;;;;;;;30.00;13.97;;;18.80;75.60;;;;;;5046635;28;46457;-64
2022/06/23 00:35:42;;;;;;;26.63;15.07;;;18.70;75.80;;;;;;5045492;28;46417;-64
2022/06/23 00:38:31;;;;;;;27.13;14.90;;;18.70;75.90;;;;;;5043335;28;46644;-65
2022/06/23 00:40:58;;;;;;;34.77;14.63;;;18.80;75.80;;;;;;5038125;28;45946;-63
2022/06/23 00:43:26;;;;;;;30.77;15.10;;;18.80;75.50;;;;;;5046028;28;46504;-63
2022/06/23 00:46:09;;;;;;;30.63;15.90;;;18.70;75.30;;;;;;5042816;28;46638;-63
2022/06/23 00:48:42;;;;;;;44.77;15.63;;;18.70;75.50;;;;;;5048311;28;46420;-63
2022/06/23 00:51:43;;;;;;;34.03;16.53;;;18.70;75.80;;;;;;5043372;28;46320;-64
2022/06/23 00:54:42;;;;;;;36.47;15.60;;;18.70;75.80;;;;;;5041404;28;46397;-64
2022/06/23 00:57:21;;;;;;;40.87;15.40;;;18.70;75.50;;;;;;5044653;28;46595;-64
2022/06/23 01:00:21;;;;;;;33.03;16.90;;;18.80;75.10;;;;;;5044659;28;46951;-63
2022/06/23 01:03:09;;;;;;;34.17;16.63;;;18.80;75.10;;;;;;5047630;28;46363;-64
2022/06/23 01:05:48;;;;;;;30.83;14.97;;;18.80;74.90;;;;;;5045545;28;46444;-63
2022/06/23 01:08:22;;;;;;;33.93;15.40;;;18.80;75.20;;;;;;5050564;28;46485;-64
2022/06/23 01:10:48;;;;;;;27.87;14.50;;;18.80;75.10;;;;;;5046224;28;45856;-64
2022/06/23 01:13:54;;;;;;;37.20;15.80;;;18.80;75.40;;;;;;5048496;28;46568;-62
2022/06/23 01:16:25;;;;;;;40.43;14.93;;;18.70;75.50;;;;;;5027382;28;46203;-62
2022/06/23 01:19:12;;;;;;;36.07;15.87;;;18.70;75.70;;;;;;5045212;28;47021;-65
2022/06/23 01:21:45;;;;;;;27.83;13.80;;;18.60;75.70;;;;;;5047134;28;46453;-64
2022/06/23 01:24:26;;;;;;;40.43;14.97;;;18.50;76.00;;;;;;5043594;28;46402;-65
2022/06/23 01:27:20;;;;;;;44.90;16.00;;;18.50;76.30;;;;;;5046617;28;46400;-64
2022/06/23 01:30:02;;;;;;;28.13;14.70;;;18.50;76.40;;;;;;5045785;28;47254;-64
2022/06/23 01:32:35;;;;;;;46.73;15.23;;;18.50;76.20;;;;;;5044890;28;46472;-64
2022/06/23 01:35:04;;;;;;;39.80;15.37;;;18.40;75.90;;;;;;5047491;28;46418;-64
2022/06/23 01:37:35;;;;;;;38.77;14.87;;;18.40;76.20;;;;;;5047442;28;46590;-64
2022/06/23 01:40:26;;;;;;;46.10;16.87;;;18.40;76.40;;;;;;5046805;28;46062;-64
2022/06/23 01:43:15;;;;;;;32.90;15.50;;;18.30;76.40;;;;;;5046447;28;46556;-63
2022/06/23 01:45:53;;;;;;;36.20;15.97;;;18.30;76.70;;;;;;5043473;28;46452;-63
2022/06/23 01:48:52;;;;;;;43.60;13.97;;;18.30;76.70;;;;;;5045076;28;46402;-65
2022/06/23 01:51:27;;;;;;;26.83;13.70;;;18.30;76.50;;;;;;5046328;28;46677;-64
2022/06/23 01:54:05;;;;;;;34.20;13.80;;;18.30;76.40;;;;;;5045025;28;46716;-63
2022/06/23 01:56:42;;;;;;;26.80;11.47;;;18.30;76.40;;;;;;5044534;28;46534;-64
2022/06/23 01:59:18;;;;;;;29.67;11.47;;;18.20;76.30;;;;;;5047884;28;46560;-64
2022/06/23 02:02:14;;;;;;;21.60;10.93;;;18.20;76.20;;;;;;5046718;28;46689;-63
2022/06/23 02:04:49;;;;;;;31.30;10.53;;;18.20;76.10;;;;;;5044272;28;46492;-64
2022/06/23 02:07:32;;;;;;;22.00;10.63;;;18.30;75.90;;;;;;5043366;28;47049;-63
2022/06/23 02:10:18;;;;;;;26.53;10.87;;;18.30;75.60;;;;;;5048351;28;46414;-66
2022/06/23 02:12:51;;;;;;;20.53;9.90;;;18.30;75.50;;;;;;5049123;28;46515;-64
2022/06/23 02:15:34;;;;;;;18.53;8.90;;;18.40;75.20;;;;;;5049671;28;46456;-64
2022/06/23 02:18:06;;;;;;;19.30;8.63;;;18.50;75.00;;;;;;5042249;28;46410;-64
2022/06/23 02:20:38;;;;;;;19.90;9.73;;;18.50;76.00;;;;;;5047142;28;46030;-64
2022/06/23 02:23:32;;;;;;;21.50;9.67;;;18.50;74.70;;;;;;5047029;28;46872;-64
2022/06/23 02:26:17;;;;;;;22.30;9.43;;;18.50;74.70;;;;;;5048512;28;45835;-63
2022/06/23 02:28:57;;;;;;;26.43;9.50;;;18.50;74.80;;;;;;5043647;28;46508;-64
2022/06/23 02:31:33;;;;;;;26.03;8.47;;;18.50;74.80;;;;;;5043722;28;46457;-65
2022/06/23 02:34:03;;;;;;;26.53;8.47;;;18.50;74.80;;;;;;5043864;28;47218;-64
2022/06/23 02:36:42;;;;;;;24.07;8.00;;;18.50;74.70;;;;;;5045790;28;46476;-64
2022/06/23 02:39:20;;;;;;;31.77;8.60;;;18.60;74.60;;;;;;5043925;28;46411;-63
2022/06/23 02:42:00;;;;;;;18.60;8.13;;;18.60;74.30;;;;;;5047217;28;46431;-64
2022/06/23 02:44:38;;;;;;;16.37;7.20;;;18.70;74.20;;;;;;5045459;28;46740;-65
2022/06/23 02:47:34;;;;;;;20.10;6.43;;;18.70;74.10;;;;;;5045199;28;47522;-64
2022/06/23 02:50:28;;;;;;;18.10;6.67;;;18.70;74.00;;;;;;5045094;28;46422;-64
2022/06/23 02:53:09;;;;;;;19.60;6.30;;;18.70;73.70;;;;;;5041134;28;46329;-66
2022/06/23 02:56:07;;;;;;;17.00;7.40;;;18.70;73.60;;;;;;5045063;28;47266;-65
2022/06/23 02:58:42;;;;;;;17.97;7.83;;;18.80;73.50;;;;;;5044038;28;46402;-64
2022/06/23 03:01:18;;;;;;;18.17;6.80;;;18.80;73.20;;;;;;5042706;28;45915;-65
2022/06/23 03:03:52;;;;;;;16.10;7.50;;;18.80;73.30;;;;;;5046530;28;46743;-64
2022/06/23 03:06:29;;;;;;;14.30;6.57;;;18.80;73.50;;;;;;5046157;28;47196;-63
2022/06/23 03:09:06;;;;;;;21.40;7.37;;;18.70;73.40;;;;;;5038678;28;46403;-63
2022/06/23 03:11:52;;;;;;;18.10;6.97;;;18.70;73.60;;;;;;5048412;28;46393;-64
2022/06/23 03:14:29;;;;;;;23.47;7.43;;;18.70;74.90;;;;;;5041168;28;46434;-64
2022/06/23 03:17:04;;;;;;;27.60;7.57;;;18.70;73.70;;;;;;5041797;28;47055;-64
2022/06/23 03:19:36;;;;;;;19.73;6.80;;;18.70;73.80;;;;;;5040663;28;46695;-64
2022/06/23 03:22:15;;;;;;;17.00;6.70;;;18.60;73.90;;;;;;5050611;28;46673;-63
2022/06/23 03:24:54;;;;;;;14.43;5.97;;;18.60;73.80;;;;;;5044989;28;46510;-64
2022/06/23 03:27:35;;;;;;;20.43;6.37;;;18.60;73.80;;;;;;5054431;28;46404;-64
2022/06/23 03:30:12;;;;;;;14.90;6.30;;;18.60;73.70;;;;;;5052203;28;45921;-63
2022/06/23 03:32:48;;;;;;;13.27;5.57;;;18.60;73.80;;;;;;5053622;28;46501;-63
2022/06/23 03:35:19;;;;;;;16.33;5.80;;;18.60;74.00;;;;;;5049244;28;46323;-62
2022/06/23 03:37:50;;;;;;;18.63;6.10;;;18.50;74.10;;;;;;5056092;28;46638;-63
2022/06/23 03:43:20;;;;;;;17.57;7.07;;;18.40;74.60;;;;;;5048221;28;46508;-64
2022/06/23 03:45:51;;;;;;;10.10;6.77;;;18.20;74.80;;;;;;5047641;28;46534;-64
2022/06/23 03:48:33;;;;;;;15.53;5.90;;;18.20;74.90;;;;;;5048581;28;46621;-63
2022/06/23 03:51:18;;;;;;;16.03;6.27;;;18.20;75.10;;;;;;5040116;28;46357;-65
2022/06/23 03:54:10;;;;;;;13.40;5.23;;;18.20;75.00;;;;;;5046671;28;46879;-65
2022/06/23 03:56:47;;;;;;;16.40;6.00;;;18.20;75.00;;;;;;5047395;28;46621;-65
2022/06/23 03:59:28;;;;;;;19.77;6.00;;;18.20;74.80;;;;;;5044876;28;46330;-65
2022/06/23 04:01:59;;;;;;;12.63;5.97;;;18.20;74.50;;;;;;5048275;28;46294;-64
2022/06/23 04:04:49;;;;;;;16.67;5.47;;;18.30;74.30;;;;;;5050101;28;46447;-65
2022/06/23 04:07:30;;;;;;;20.97;5.80;;;18.40;73.60;;;;;;5043076;28;46559;-66
2022/06/23 04:10:06;;;;;;;9.93;4.93;;;18.50;73.10;;;;;;5047232;28;46419;-65
2022/06/23 04:12:34;;;;;;;15.20;4.53;;;18.60;72.60;;;;;;5042592;28;46389;-65
2022/06/23 04:15:05;;;;;;;22.83;4.90;;;18.60;72.50;;;;;;5051591;28;46454;-65
2022/06/23 04:18:12;;;;;;;20.87;4.63;;;18.70;72.50;;;;;;5045357;28;46372;-65
2022/06/23 04:20:41;;;;;;;13.43;4.73;;;18.90;72.70;;;;;;5024485;28;46446;-64
2022/06/23 04:23:07;;;;;;;16.50;4.90;;;19.00;71.60;;;;;;5042240;28;46882;-65
2022/06/23 04:25:58;;;;;;;14.70;6.07;;;19.20;71.20;;;;;;5049884;28;46403;-65
2022/06/23 04:28:28;;;;;;;18.93;6.50;;;19.40;70.50;;;;;;5044923;28;46866;-65
2022/06/23 04:30:57;;;;;;;9.83;4.93;;;19.40;70.30;;;;;;5044998;28;46426;-64
2022/06/23 04:33:25;;;;;;;14.13;5.57;;;19.50;69.80;;;;;;5043546;28;46337;-65
2022/06/23 04:35:55;;;;;;;14.27;5.57;;;19.60;69.60;;;;;;5043192;28;46466;-65
2022/06/23 04:38:20;;;;;;;20.20;5.63;;;19.70;69.40;;;;;;5041050;28;46498;-70
2022/06/23 04:40:51;;;;;;;18.37;5.83;;;19.90;68.80;;;;;;5044568;28;46982;-66
2022/06/23 04:43:37;;;;;;;21.10;6.10;;;20.00;68.40;;;;;;5032410;28;46677;-65
2022/06/23 04:46:28;;;;;;;18.17;5.43;;;20.60;66.90;;;;;;5043330;28;46752;-64
2022/06/23 04:49:02;;;;;;;14.80;4.73;;;22.60;63.20;;;;;;5041680;28;46727;-63
2022/06/23 04:51:33;;;;;;;15.20;4.87;;;24.00;59.40;;;;;;5042911;28;48029;-63
2022/06/23 04:54:08;;;;;;;16.40;4.50;;;25.20;55.80;;;;;;5042272;28;46435;-67
2022/06/23 04:56:43;;;;;;;12.53;4.33;;;26.10;53.00;;;;;;5040224;28;46516;-65
2022/06/23 04:59:52;;;;;;;17.57;5.50;;;27.00;49.90;;;;;;5042632;28;46319;-65
2022/06/23 05:02:21;;;;;;;13.13;4.83;;;27.50;47.50;;;;;;5029475;28;46415;-63
2022/06/23 05:04:53;;;;;;;16.73;4.73;;;28.10;46.10;;;;;;5046983;28;46429;-62
2022/06/23 05:07:25;;;;;;;12.70;4.10;;;28.50;43.80;;;;;;5048495;28;46411;-62
2022/06/23 05:09:57;;;;;;;12.93;4.73;;;29.00;41.50;;;;;;5040991;28;46449;-63
2022/06/23 05:12:41;;;;;;;11.23;3.80;;;29.40;40.20;;;;;;5048047;28;47295;-64
2022/06/23 05:15:15;;;;;;;12.50;4.00;;;29.60;39.10;;;;;;5047502;28;46408;-64
2022/06/23 05:17:58;;;;;;;15.57;4.37;;;29.90;38.30;;;;;;5043603;28;46469;-64
2022/06/23 05:20:34;;;;;;;19.80;4.97;;;29.70;37.30;;;;;;5042974;28;46502;-62
2022/06/23 05:23:02;;;;;;;12.37;4.30;;;29.70;37.30;;;;;;5047033;28;46346;-62
2022/06/23 05:25:43;;;;;;;14.93;4.00;;;30.60;34.70;;;;;;5044468;28;45936;-64
2022/06/23 05:28:18;;;;;;;20.40;4.20;;;31.10;31.20;;;;;;5044872;28;46361;-66
2022/06/23 05:30:50;;;;;;;11.20;4.00;;;31.70;29.70;;;;;;5040802;28;46381;-67
2022/06/23 05:33:19;;;;;;;14.03;3.90;;;32.10;29.30;;;;;;5040947;28;46460;-65
2022/06/23 05:35:51;;;;;;;14.60;4.20;;;32.60;28.30;;;;;;5039077;28;46556;-63
2022/06/23 05:38:30;;;;;;;15.07;4.13;;;33.20;26.70;;;;;;5038470;28;46614;-66
2022/06/23 05:41:03;;;;;;;8.40;3.70;;;33.60;25.80;;;;;;5045049;28;45876;-65
2022/06/23 05:43:33;;;;;;;9.73;2.90;;;34.00;24.50;;;;;;5040481;28;46825;-63
2022/06/23 05:46:03;;;;;;;17.13;2.93;;;34.10;23.80;;;;;;5047135;28;46335;-63
2022/06/23 05:48:37;;;;;;;9.60;2.80;;;34.20;22.90;;;;;;5043954;28;46445;-65
2022/06/23 05:51:27;;;;;;;14.40;2.90;;;34.40;21.50;;;;;;5049961;28;46496;-63
2022/06/23 05:54:05;;;;;;;11.60;2.40;;;33.90;21.30;;;;;;5047225;28;46419;-65
2022/06/23 05:56:35;;;;;;;15.73;2.90;;;33.10;22.90;;;;;;5048593;28;46623;-65
2022/06/23 05:59:35;;;;;;;12.30;2.37;;;31.50;26.50;;;;;;5049484;28;45910;-64
2022/06/23 06:02:11;;;;;;;8.97;2.30;;;29.90;28.60;;;;;;5051750;28;46453;-63
2022/06/23 06:04:55;;;;;;;6.60;2.30;;;28.80;31.10;;;;;;5047068;28;46548;-62
2022/06/23 06:07:32;;;;;;;9.83;2.77;;;28.00;32.80;;;;;;5043504;28;46421;-65
2022/06/23 06:10:00;;;;;;;8.80;3.10;;;27.50;34.10;;;;;;5045078;28;46390;-65
2022/06/23 06:12:32;;;;;;;9.30;2.57;;;27.00;35.30;;;;;;5039965;28;46408;-64
2022/06/23 06:15:04;;;;;;;12.83;2.80;;;26.70;35.80;;;;;;5044030;28;45943;-64
2022/06/23 06:17:32;;;;;;;8.37;2.27;;;26.40;36.30;;;;;;5044756;28;45871;-63
2022/06/23 06:20:04;;;;;;;14.20;2.63;;;26.30;36.60;;;;;;5049272;28;46534;-62
2022/06/23 06:22:42;;;;;;;15.43;3.40;;;26.30;36.20;;;;;;5050560;28;46666;-62
2022/06/23 06:25:33;;;;;;;12.63;2.50;;;26.40;36.10;;;;;;5050379;28;46393;-61
2022/06/23 06:28:10;;;;;;;9.23;2.27;;;26.40;36.00;;;;;;5051055;28;46673;-61
2022/06/23 06:30:39;;;;;;;7.73;2.93;;;26.20;36.10;;;;;;5046655;28;46430;-61
2022/06/23 06:33:05;;;;;;;8.53;2.10;;;26.20;36.00;;;;;;5047492;28;46415;-62
2022/06/23 06:35:36;;;;;;;8.93;1.83;;;26.10;36.20;;;;;;5048043;28;48067;-61
2022/06/23 06:38:15;;;;;;;7.67;2.27;;;26.00;36.20;;;;;;5053678;28;46524;-62
2022/06/23 06:40:43;;;;;;;9.47;2.30;;;25.80;36.20;;;;;;5035491;28;46453;-64
2022/06/23 06:43:15;;;;;;;9.60;2.80;;;25.80;36.30;;;;;;5044424;28;46638;-63
2022/06/23 06:45:41;;;;;;;9.80;2.53;;;25.80;36.20;;;;;;5044060;28;46453;-63
2022/06/23 06:48:17;;;;;;;6.60;2.43;;;26.00;35.80;;;;;;5042812;28;46512;-63
2022/06/23 06:50:50;;;;;;;7.00;2.00;;;26.00;35.60;;;;;;5042288;28;46350;-62
2022/06/23 06:53:27;;;;;;;8.00;2.03;;;26.10;35.60;;;;;;5042152;28;46562;-63
2022/06/23 06:56:18;;;;;;;10.17;2.10;;;25.90;35.50;;;;;;5041752;28;46438;-65
2022/06/23 06:59:05;;;;;;;12.77;2.53;;;25.80;36.10;;;;;;5040368;28;46859;-69
2022/06/23 07:01:35;;;;;;;5.07;1.93;;;25.80;36.00;;;;;;5043771;28;46670;-63
2022/06/23 07:04:00;;;;;;;6.90;1.87;;;25.80;35.80;;;;;;5041011;28;46520;-63
2022/06/23 07:06:52;;;;;;;7.70;1.97;;;25.90;34.70;;;;;;5042317;28;46196;-68
2022/06/23 07:09:28;;;;;;;10.73;2.50;;;25.80;35.00;;;;;;5038962;28;46745;-65
2022/06/23 07:12:09;;;;;;;6.90;2.10;;;26.00;35.00;;;;;;5043663;28;46734;-64
2022/06/23 07:15:04;;;;;;;9.00;1.73;;;26.00;34.70;;;;;;5040922;28;46837;-64
2022/06/23 07:17:43;;;;;;;10.90;2.70;;;26.10;34.50;;;;;;5030509;28;46576;-63
2022/06/23 07:20:22;;;;;;;5.83;2.03;;;25.60;33.40;;;;;;5040256;28;46433;-63
2022/06/23 07:22:59;;;;;;;14.40;2.20;;;25.40;33.40;;;;;;5045622;28;46293;-67
2022/06/23 07:25:40;;;;;;;10.30;2.10;;;25.20;33.20;;;;;;5041875;28;46398;-64
2022/06/23 07:28:27;;;;;;;6.03;2.20;;;25.10;34.00;;;;;;5041075;28;46425;-63
2022/06/23 07:30:58;;;;;;;10.23;2.30;;;25.00;34.00;;;;;;5042317;28;46378;-62
2022/06/23 07:33:34;;;;;;;8.83;2.10;;;25.20;33.50;;;;;;5042381;28;46672;-63
2022/06/23 07:36:13;;;;;;;10.13;2.10;;;25.00;33.80;;;;;;5044890;28;46330;-64
2022/06/23 07:39:00;;;;;;;7.03;1.90;;;24.90;33.90;;;;;;5039126;28;47082;-65
2022/06/23 07:41:36;;;;;;;10.33;2.23;;;24.80;33.70;;;;;;5049893;28;46446;-64
2022/06/23 07:44:42;;;;;;;7.47;1.80;;;24.90;33.30;;;;;;5046429;28;46565;-61
2022/06/23 07:47:08;;;;;;;7.83;2.70;;;25.20;32.50;;;;;;5015980;28;46487;-62
2022/06/23 07:49:34;;;;;;;6.57;1.80;;;25.20;32.30;;;;;;5013770;28;46463;-62
2022/06/23 07:52:01;;;;;;;10.17;2.40;;;25.50;31.60;;;;;;5028052;28;46482;-63
2022/06/23 07:54:28;;;;;;;6.73;2.03;;;26.00;31.00;;;;;;5045761;28;45843;-64
2022/06/23 07:56:54;;;;;;;12.13;1.90;;;26.20;30.70;;;;;;5043167;28;46406;-66
2022/06/23 07:59:26;;;;;;;5.33;1.93;;;26.30;30.60;;;;;;5041262;28;46009;-65
2022/06/23 08:01:58;;;;;;;5.33;1.83;;;26.00;30.70;;;;;;5037865;28;46421;-65
2022/06/23 08:05:18;;;;;;;9.33;1.93;;;26.00;31.10;;;;;;5040767;28;46594;-67
2022/06/23 08:07:44;;;;;;;7.80;1.90;;;26.30;30.80;;;;;;5035573;28;46973;-63
2022/06/23 08:10:17;;;;;;;10.27;2.50;;;26.60;30.50;;;;;;5038199;28;46338;-63
2022/06/23 08:13:12;;;;;;;6.57;1.80;;;26.50;29.90;;;;;;5046194;28;46814;-68
2022/06/23 08:18:40;;;;;;;8.53;1.93;;;26.20;30.50;;;;;;5044274;28;46501;-66
2022/06/23 08:21:15;;;;;;;8.80;2.00;;;26.50;30.40;;;;;;5047003;28;46508;-63
2022/06/23 08:24:07;;;;;;;8.97;2.47;;;26.40;30.30;;;;;;5049694;28;46421;-64
2022/06/23 08:26:35;;;;;;;9.30;2.27;;;26.20;30.50;;;;;;5047106;28;47111;-63
2022/06/23 08:29:06;;;;;;;9.63;1.77;;;26.20;31.20;;;;;;5041968;28;46472;-63
2022/06/23 08:31:31;;;;;;;9.33;2.30;;;26.20;30.80;;;;;;5046083;28;46510;-63
2022/06/23 08:33:58;;;;;;;10.90;2.50;;;26.20;30.70;;;;;;5047420;28;46410;-63
2022/06/23 08:36:33;;;;;;;10.83;2.20;;;26.20;31.10;;;;;;5042506;28;46414;-66
2022/06/23 08:39:30;;;;;;;9.43;2.47;;;26.20;30.40;;;;;;5041020;28;46496;-64
2022/06/23 08:42:04;;;;;;;9.80;2.30;;;26.40;30.40;;;;;;5043909;28;47303;-63
2022/06/23 08:44:53;;;;;;;12.93;3.00;;;26.60;30.60;;;;;;5044227;28;46424;-64
2022/06/23 08:47:40;;;;;;;12.10;2.33;;;26.30;30.30;;;;;;5042216;28;46300;-64
2022/06/23 08:50:39;;;;;;;9.60;2.50;;;26.10;30.90;;;;;;5039646;28;47442;-62
2022/06/23 08:53:22;;;;;;;7.57;1.90;;;26.40;30.60;;;;;;5042937;28;46460;-63
2022/06/23 08:55:57;;;;;;;8.17;2.57;;;26.70;29.90;;;;;;5046298;28;46525;-65
2022/06/23 08:58:46;;;;;;;7.67;2.07;;;26.70;30.00;;;;;;5043138;28;46993;-65
2022/06/23 09:01:30;;;;;;;11.53;2.10;;;26.40;30.50;;;;;;5042777;28;46256;-63
2022/06/23 09:04:02;;;;;;;7.37;2.30;;;26.50;31.10;;;;;;5046438;28;47146;-66
2022/06/23 09:06:33;;;;;;;10.93;2.57;;;26.70;30.50;;;;;;5043475;28;46802;-62
2022/06/23 09:09:20;;;;;;;6.53;2.10;;;26.60;30.70;;;;;;5041377;28;46438;-63
2022/06/23 09:12:20;;;;;;;6.43;1.90;;;26.60;30.90;;;;;;5045027;28;45847;-62
2022/06/23 09:15:12;;;;;;;11.80;2.47;;;26.40;31.30;;;;;;5042443;28;48057;-64
2022/06/23 09:18:00;;;;;;;18.60;2.50;;;26.60;31.60;;;;;;5044368;28;46569;-64
2022/06/23 09:20:55;;;;;;;7.43;1.80;;;26.80;31.40;;;;;;5039000;28;46762;-62
2022/06/23 09:24:05;;;;;;;8.87;2.57;;;27.20;31.10;;;;;;5048420;28;47245;-62
2022/06/23 09:26:33;;;;;;;10.23;2.40;;;27.40;30.00;;;;;;5041532;28;46433;-61
2022/06/23 09:29:28;;;;;;;7.13;2.20;;;27.10;30.50;;;;;;5038176;28;46429;-62
2022/06/23 09:32:00;;;;;;;11.23;3.47;;;27.20;30.20;;;;;;5041593;28;46402;-62
2022/06/23 09:34:48;;;;;;;8.87;2.50;;;27.30;29.80;;;;;;5034273;28;46517;-63
2022/06/23 09:37:36;;;;;;;6.63;2.30;;;27.20;29.60;;;;;;5041163;28;46618;-62
2022/06/23 09:40:20;;;;;;;10.43;3.00;;;27.30;29.30;;;;;;5038322;28;46460;-62
2022/06/23 09:42:59;;;;;;;8.50;2.40;;;27.50;28.70;;;;;;5041044;28;46563;-62
2022/06/23 09:45:49;;;;;;;9.17;1.93;;;27.40;29.50;;;;;;5041903;28;46465;-62
2022/06/23 09:48:49;;;;;;;15.03;2.70;;;27.60;28.60;;;;;;5037819;28;46445;-68
2022/06/23 09:51:42;;;;;;;7.30;2.60;;;27.80;28.50;;;;;;5038305;28;46466;-61
2022/06/23 09:54:34;;;;;;;7.17;2.47;;;28.00;27.90;;;;;;5040410;28;46342;-63
2022/06/23 09:57:08;;;;;;;9.37;2.30;;;27.90;27.90;;;;;;5048364;28;46450;-63
2022/06/23 09:59:57;;;;;;;13.67;2.70;;;27.40;29.00;;;;;;5034079;28;47249;-62
2022/06/23 10:02:40;;;;;;;9.03;2.37;;;27.30;29.00;;;;;;5039765;28;46601;-63
2022/06/23 10:05:30;;;;;;;11.63;2.40;;;27.70;29.20;;;;;;5036669;28;46505;-63
2022/06/23 10:08:15;;;;;;;11.90;3.33;;;28.00;28.40;;;;;;5045901;28;46431;-61
2022/06/23 10:11:07;;;;;;;10.23;2.10;;;27.90;28.50;;;;;;5040449;28;47073;-62
2022/06/23 10:13:44;;;;;;;7.37;2.63;;;27.90;28.10;;;;;;5041187;28;46885;-62
2022/06/23 10:16:31;;;;;;;14.20;2.60;;;28.20;27.70;;;;;;5046803;28;46783;-62
2022/06/23 10:19:01;;;;;;;7.63;2.50;;;28.00;27.60;;;;;;5035860;28;46148;-62
2022/06/23 10:21:45;;;;;;;7.50;2.60;;;27.80;27.50;;;;;;5043578;28;46334;-63
2022/06/23 10:24:33;;;;;;;9.33;2.73;;;27.60;27.80;;;;;;5038767;28;46469;-63
2022/06/23 10:27:18;;;;;;;11.47;3.10;;;27.40;28.20;;;;;;5043511;28;46366;-65
2022/06/23 10:29:58;;;;;;;11.77;2.63;;;27.60;28.40;;;;;;5042765;28;45887;-63
2022/06/23 10:32:56;;;;;;;10.00;2.83;;;27.70;28.00;;;;;;5044219;28;47176;-63
2022/06/23 10:35:42;;;;;;;14.20;2.93;;;27.90;27.50;;;;;;5047109;28;46318;-64
2022/06/23 10:38:27;;;;;;;10.50;2.67;;;27.70;28.20;;;;;;5045074;28;47206;-62
2022/06/23 10:41:18;;;;;;;10.40;2.80;;;27.90;28.00;;;;;;5050878;28;46632;-63
2022/06/23 10:43:54;;;;;;;6.30;2.27;;;28.10;27.60;;;;;;5049784;28;46018;-63
2022/06/23 10:46:42;;;;;;;9.07;2.73;;;28.20;27.70;;;;;;5049173;28;46374;-63
2022/06/23 10:49:44;;;;;;;9.37;2.97;;;28.00;27.60;;;;;;5045797;28;46329;-63
2022/06/23 10:52:23;;;;;;;11.70;2.83;;;28.00;27.60;;;;;;5046072;28;46775;-63
2022/06/23 10:55:14;;;;;;;10.37;2.80;;;28.10;27.60;;;;;;5049509;28;47192;-65
2022/06/23 10:57:51;;;;;;;10.50;2.60;;;27.80;27.80;;;;;;5042680;28;46390;-62
2022/06/23 11:00:38;;;;;;;6.87;3.20;;;27.70;28.70;;;;;;5043739;28;46613;-64
2022/06/23 11:03:12;;;;;;;12.70;3.40;;;27.70;28.80;;;;;;5044197;28;46466;-63
2022/06/23 11:05:59;;;;;;;11.30;2.80;;;27.70;28.60;;;;;;5046817;28;46378;-64
2022/06/23 11:09:06;;;;;;;14.30;3.20;;;27.80;28.80;;;;;;5048861;28;46347;-65
2022/06/23 11:11:59;;;;;;;9.00;2.80;;;27.80;28.20;;;;;;5044491;28;46483;-64
2022/06/23 11:14:37;;;;;;;10.27;2.40;;;28.00;27.60;;;;;;5046029;28;46803;-63
2022/06/23 11:17:24;;;;;;;14.50;2.47;;;28.20;27.70;;;;;;5045847;28;47475;-64
2022/06/23 11:20:13;;;;;;;14.10;2.97;;;28.20;27.10;;;;;;5041630;28;46912;-64
2022/06/23 11:23:07;;;;;;;8.17;2.40;;;28.30;26.40;;;;;;5044267;28;45801;-64
2022/06/23 11:26:02;;;;;;;11.90;2.63;;;28.50;26.00;;;;;;5045255;28;46830;-63
2022/06/23 11:28:40;;;;;;;13.93;2.30;;;28.50;25.30;;;;;;5048793;28;46420;-62
2022/06/23 11:31:53;;;;;;;12.23;2.77;;;28.40;25.10;;;;;;5045297;28;46719;-62
2022/06/23 11:34:28;;;;;;;14.13;2.63;;;28.10;24.90;;;;;;5046957;28;46314;-62
2022/06/23 11:37:05;;;;;;;10.07;2.33;;;28.00;25.10;;;;;;5047724;28;46482;-64
2022/06/23 11:39:48;;;;;;;5.57;2.10;;;27.90;25.20;;;;;;5040405;28;46482;-61
2022/06/23 11:42:33;;;;;;;12.20;2.90;;;27.90;25.00;;;;;;5046372;28;46405;-60
2022/06/23 11:45:18;;;;;;;9.40;2.77;;;28.20;25.00;;;;;;5047031;28;46393;-60
2022/06/23 11:47:59;;;;;;;12.87;2.80;;;28.30;24.60;;;;;;5047524;28;46805;-61
2022/06/23 11:50:56;;;;;;;6.67;2.13;;;28.40;24.10;;;;;;5041778;28;48852;-60
2022/06/23 11:53:43;;;;;;;6.90;2.37;;;28.40;24.50;;;;;;5030464;28;46919;-62
2022/06/23 11:56:41;;;;;;;8.83;2.47;;;28.30;24.80;;;;;;5044709;28;46407;-61
2022/06/23 11:59:35;;;;;;;10.60;2.90;;;28.50;24.60;;;;;;5039971;28;46656;-59
2022/06/23 12:02:01;;;;;;;11.20;2.70;;;28.60;24.70;;;;;;5015919;28;48110;-60
2022/06/23 12:04:29;;;;;;;15.20;2.70;;;28.50;23.80;;;;;;5041600;28;46440;-61
2022/06/23 12:07:00;;;;;;;4.93;1.80;;;28.50;23.70;;;;;;5044116;28;46522;-61
2022/06/23 12:09:43;;;;;;;16.13;2.77;;;28.60;23.60;;;;;;5032508;28;46504;-59
2022/06/23 12:12:09;;;;;;;8.03;2.60;;;28.50;23.50;;;;;;5036629;28;47160;-62
2022/06/23 12:14:37;;;;;;;7.27;2.90;;;28.50;23.30;;;;;;5049280;28;46493;-64
2022/06/23 12:17:20;;;;;;;14.10;2.73;;;28.50;23.40;;;;;;5037192;28;47012;-60
2022/06/23 12:20:16;;;;;;;13.10;2.10;;;28.50;23.00;;;;;;5040998;28;46992;-60
2022/06/23 12:22:52;;;;;;;12.90;2.53;;;28.50;23.30;;;;;;5034332;28;46323;-59
2022/06/23 12:25:30;;;;;;;14.50;2.60;;;28.60;22.80;;;;;;5042563;28;46926;-60
2022/06/23 12:28:28;;;;;;;9.10;2.67;;;28.40;22.90;;;;;;5036241;28;46511;-60
2022/06/23 12:31:02;;;;;;;5.97;2.07;;;28.50;22.90;;;;;;5026249;28;46908;-61
2022/06/23 12:33:43;;;;;;;13.10;2.60;;;28.50;22.80;;;;;;5036372;28;47005;-59
2022/06/23 12:36:16;;;;;;;7.50;2.20;;;28.60;22.50;;;;;;5032670;28;46539;-60
2022/06/23 12:38:52;;;;;;;9.23;2.63;;;28.50;23.10;;;;;;5039645;28;45935;-59
2022/06/23 12:41:36;;;;;;;12.13;2.70;;;28.50;22.60;;;;;;5043985;28;46446;-62
2022/06/23 12:44:18;;;;;;;8.73;3.07;;;28.60;21.80;;;;;;5042760;28;46420;-60
2022/06/23 12:46:59;;;;;;;10.97;2.90;;;28.70;23.10;;;;;;5039019;28;46466;-61
2022/06/23 12:49:42;;;;;;;10.53;3.23;;;28.80;23.70;;;;;;5039858;28;46691;-61
2022/06/23 12:52:19;;;;;;;8.93;2.80;;;28.70;23.60;;;;;;5042477;28;46471;-60
2022/06/23 12:55:22;;;;;;;13.53;3.63;;;28.60;24.10;;;;;;5037019;28;46865;-60
2022/06/23 12:58:18;;;;;;;16.10;4.03;;;28.60;24.70;;;;;;5042234;28;46536;-61
2022/06/23 13:00:53;;;;;;;12.80;3.00;;;28.90;24.50;;;;;;5033792;28;46744;-61
2022/06/23 13:04:01;;;;;;;13.90;3.30;;;28.80;24.80;;;;;;5047361;28;46705;-61
2022/06/23 13:06:47;;;;;;;10.17;3.10;;;28.90;25.10;;;;;;5026077;28;47182;-60
2022/06/23 13:09:34;;;;;;;9.87;3.83;;;28.80;25.10;;;;;;5040753;28;46488;-60
2022/06/23 13:12:36;;;;;;;11.17;3.10;;;28.70;25.40;;;;;;5048053;28;46402;-61
2022/06/23 13:15:08;;;;;;;9.77;3.00;;;28.60;25.60;;;;;;5037680;28;46468;-61
2022/06/23 13:17:47;;;;;;;14.43;3.30;;;28.50;25.80;;;;;;5044547;28;47287;-60
2022/06/23 13:20:36;;;;;;;11.27;3.60;;;28.40;26.10;;;;;;5040429;28;46867;-59
2022/06/23 13:23:07;;;;;;;8.87;2.97;;;28.50;25.70;;;;;;5043764;28;46756;-61
2022/06/23 13:25:40;;;;;;;11.80;3.27;;;28.70;25.30;;;;;;5043871;28;45873;-59
2022/06/23 13:28:18;;;;;;;11.17;3.50;;;28.80;25.40;;;;;;5041670;28;47180;-60
2022/06/23 13:30:47;;;;;;;11.60;3.27;;;28.70;25.60;;;;;;5041406;28;46412;-60
2022/06/23 13:33:33;;;;;;;11.60;3.30;;;28.70;25.60;;;;;;5041151;28;46965;-60
2022/06/23 13:36:10;;;;;;;14.53;3.37;;;28.70;25.20;;;;;;5048090;28;46682;-61
2022/06/23 13:38:54;;;;;;;12.80;3.50;;;28.70;25.60;;;;;;5041954;28;46848;-59
2022/06/23 13:41:41;;;;;;;10.43;2.90;;;28.60;25.60;;;;;;5033913;28;46304;-60
2022/06/23 13:44:31;;;;;;;9.90;2.97;;;28.80;25.60;;;;;;5040002;28;46476;-60
2022/06/23 13:47:45;;;;;;;15.00;3.30;;;28.80;25.60;;;;;;5040423;28;46415;-61
2022/06/23 13:50:33;;;;;;;12.90;3.50;;;29.00;25.20;;;;;;5034207;28;46926;-60
2022/06/23 13:53:08;;;;;;;9.50;3.03;;;29.10;25.60;;;;;;5039587;28;46451;-58